Latest Weather Observations for Coonawarra

IDS60801

Issued at 8:02 pm CDT Sunday 29 March 2020 (issued every 10 minutes, with the page automatically refreshed every 10 minutes)

About weather observations | Map of weather stations | Latest weather observations for SA | Other Formats
Station Details ID: 026091 Name: COONAWARRA Lat: -37.29 Lon: 140.83 Height: 57.0 m
Data from the previous 72 hours. | See also: Recent months at Coonawarra
Date/Time
CDT
Temp
°C
App
Temp
°C
Dew
Point
°C
Rel
Hum
%
Delta-T
°C
Wind Press
QNH
hPa
Press
MSL
hPa
Rain since
9am
mm
Dir  Spd
km/h
Gust
km/h
Spd
kts
Gust
kts
29/08:00pm 16.7 14.5 10.9 68 3.1 W 13 20 7 11 1011.2 1011.1 0.4
29/07:30pm 17.6 15.1 10.9 65 3.6 W 15 20 8 11 1010.8 1010.7 0.4
29/07:00pm 18.9 15.9 10.8 59 4.4 W 17 26 9 14 1010.3 1010.2 0.4
29/06:30pm 20.2 16.3 10.7 54 5.2 W 22 32 12 17 1009.9 1009.8 0.4
29/06:00pm 21.3 17.0 10.8 51 5.8 W 24 32 13 17 1009.5 1009.4 0.4
29/05:30pm 22.2 17.8 10.4 47 6.5 W 24 37 13 20 1009.2 1009.1 0.4
29/05:00pm 23.4 18.6 10.4 43 7.2 WNW 26 33 14 18 1008.8 1008.7 0.4
29/04:30pm 23.6 18.8 10.4 43 7.3 WNW 26 37 14 20 1008.5 1008.4 0.4
29/04:00pm 23.9 19.3 9.6 40 7.8 WNW 24 35 13 19 1008.1 1007.9 0.4
29/03:30pm 24.2 20.4 9.8 40 7.9 WNW 20 32 11 17 1008.1 1007.9 0.4
29/03:00pm 24.8 20.3 10.0 39 8.2 WNW 24 41 13 22 1008.2 1008.0 0.4
29/02:30pm 23.7 20.0 12.6 49 6.4 WNW 24 39 13 21 1008.5 1008.4 0.4
29/02:00pm 23.4 19.6 13.7 54 5.7 WNW 26 37 14 20 1008.5 1008.4 0.4
29/01:30pm 23.3 19.5 13.5 54 5.7 NW 26 35 14 19 1008.9 1008.8 0.4
29/01:00pm 22.9 18.2 10.8 46 6.7 NNW 26 39 14 21 1008.9 1008.8 0.4
29/12:30pm 21.8 16.6 10.3 48 6.3 NNW 28 44 15 24 1009.4 1009.3 0.4
29/12:00pm 21.6 16.7 11.2 51 5.8 NNW 28 39 15 21 1009.5 1009.4 0.4
29/11:30am 19.9 16.7 11.4 58 4.7 NNW 19 30 10 16 1009.8 1009.7 0.4
29/11:00am 20.1 16.9 11.2 56 4.9 N 19 28 10 15 1009.2 1009.1 0.4
29/10:30am 19.4 16.2 11.4 60 4.4 N 19 28 10 15 1009.1 1009.0 0.4
29/10:00am 18.1 16.6 13.1 72 2.8 N 13 20 7 11 1009.5 1009.4 0.4
29/09:30am 17.8 15.6 13.4 75 2.5 N 17 28 9 15 1009.4 1009.3 0.4
29/09:00am 19.8 15.2 12.3 62 4.2 N 28 50 15 27 1009.3 1009.2 0.2
29/08:38am 20.8 16.3 12.5 59 4.7 N 28 57 15 31 1009.1 1009.0 0.2
29/08:30am 21.8 17.3 12.5 55 5.3 N 28 41 15 22 1009.0 1008.9 0.0
29/08:00am 23.0 19.8 11.2 47 6.6 NNW 19 32 10 17 1008.2 1008.0 0.0
29/07:30am 23.1 19.4 11.6 48 6.5 N 22 30 12 16 1007.6 1007.4 0.0
29/07:00am 23.3 20.0 11.6 47 6.6 NNE 20 37 11 20 1007.1 1006.9 0.0
29/06:30am 23.5 20.7 11.2 46 6.9 N 17 28 9 15 1007.3 1007.1 0.0
29/06:00am 23.6 20.1 10.9 44 7.1 N 20 30 11 16 1007.4 1007.2 0.0
29/05:30am 23.8 19.1 10.7 43 7.3 NNE 26 39 14 21 1007.3 1007.1 0.0
29/05:00am 23.9 19.6 10.8 43 7.3 NNE 24 37 13 20 1007.3 1007.1 0.0
29/04:30am 23.8 19.5 10.7 43 7.3 NNE 24 41 13 22 1007.2 1007.0 0.0
29/04:00am 23.6 19.3 10.9 44 7.1 NNE 24 39 13 21 1007.5 1007.3 0.0
29/03:30am 23.5 19.6 10.8 44 7.1 NNE 22 35 12 19 1007.7 1007.5 0.0
29/03:00am 23.2 19.6 10.6 45 7.0 NNE 20 30 11 16 1008.1 1007.9 0.0
29/02:30am 23.5 19.8 10.3 43 7.3 N 20 30 11 16 1008.6 1008.5 0.0
29/02:00am 23.6 19.5 10.2 42 7.4 N 22 32 12 17 1008.9 1008.8 0.0
29/01:30am 23.6 19.8 9.7 41 7.6 NNE 20 30 11 16 1008.7 1008.6 0.0
29/01:00am 23.0 19.0 9.1 41 7.5 NNE 20 28 11 15 1009.2 1009.1 0.0
29/12:30am 21.7 18.6 7.4 39 7.4 NE 13 19 7 10 1009.5 1009.4 0.0
29/12:00am 20.1 16.3 5.9 39 7.1 NE 15 19 8 10 1010.0 1009.9 0.0
 
Date/Time
CDT
Temp
°C
App
Temp
°C
Dew
Point
°C
Rel
Hum
%
Delta-T
°C
Wind Press
QNH
hPa
Press
MSL
hPa
Rain since
9am
mm
Dir  Spd
km/h
Gust
km/h
Spd
kts
Gust
kts
28/11:30pm 17.9 14.7 5.1 43 6.2 ENE 11 13 6 7 1010.4 1010.3 0.0
28/11:00pm 16.5 13.4 5.5 48 5.3 ENE 11 15 6 8 1010.9 1010.8 0.0
28/10:30pm 16.3 14.5 8.0 58 4.2 ENE 7 9 4 5 1011.3 1011.2 0.0
28/10:00pm 17.7 14.6 5.6 45 5.9 E 11 13 6 7 1011.5 1011.4 0.0
28/09:30pm 17.3 15.0 7.4 52 5.0 ENE 9 9 5 5 1011.8 1011.7 0.0
28/09:00pm 18.1 16.4 8.2 52 5.1 ENE 7 9 4 5 1012.1 1012.0 0.0
28/08:30pm 19.2 18.0 6.4 43 6.4 N 2 7 1 4 1012.1 1012.0 0.0
28/08:00pm 20.2 19.0 6.3 40 7.0 W 2 7 1 4 1011.9 1011.8 0.0
28/07:30pm 22.6 19.7 6.6 35 8.2 W 11 13 6 7 1011.9 1011.8 0.0
28/07:00pm 25.2 21.3 3.2 24 10.8 W 13 17 7 9 1011.9 1011.8 0.0
28/06:30pm 28.3 23.6 1.2 17 13.1 W 15 26 8 14 1011.8 1011.7 0.0
28/06:00pm 29.1 24.7 4.7 21 12.6 NNW 17 26 9 14 1011.7 1011.6 0.0
28/05:30pm 30.0 24.1 1.5 16 14.0 NW 22 32 12 17 1011.9 1011.8 0.0
28/05:00pm 30.0 24.0 1.1 15 14.1 NNW 22 33 12 18 1012.2 1012.1 0.0
28/04:30pm 30.4 24.1 1.7 16 14.2 NNW 24 37 13 20 1012.3 1012.2 0.0
28/04:00pm 30.8 24.3 2.6 16 14.2 NW 26 44 14 24 1012.4 1012.3 0.0
28/03:30pm 30.7 24.1 4.2 18 13.7 NNW 28 46 15 25 1012.7 1012.6 0.0
28/03:00pm 29.9 22.8 3.5 18 13.4 NNW 30 43 16 23 1013.2 1013.1 0.0
28/02:30pm 29.7 24.2 4.2 19 13.1 NNW 22 41 12 22 1013.4 1013.3 0.0
28/02:17pm 30.3 23.8 4.7 19 13.3 NNW 28 52 15 28 1013.5 1013.4 0.0
28/02:00pm 30.0 23.6 5.4 21 12.9 NNW 28 41 15 22 1013.9 1013.8 0.0
28/01:42pm 30.1 23.9 6.0 22 12.8 N 28 48 15 26 1014.2 1014.1 0.0
28/01:30pm 29.5 23.6 5.8 22 12.5 NNW 26 44 14 24 1014.4 1014.3 0.0
28/01:00pm 29.6 23.9 6.9 24 12.2 NNW 26 39 14 21 1014.8 1014.7 0.0
28/12:30pm 28.4 22.5 7.4 26 11.3 NNW 28 43 15 23 1015.3 1015.2 0.0
28/12:00pm 29.0 24.0 8.1 27 11.4 NNW 24 39 13 21 1015.6 1015.5 0.0
28/11:30am 28.1 23.4 9.4 31 10.4 N 24 39 13 21 1016.0 1015.9 0.0
28/11:00am 26.7 22.5 9.7 34 9.4 N 22 32 12 17 1016.4 1016.3 0.0
28/10:30am 25.8 21.9 9.6 36 8.9 N 20 30 11 16 1016.8 1016.7 0.0
28/10:00am 24.4 20.6 9.1 37 8.3 NNE 19 32 10 17 1016.9 1016.8 0.0
28/09:30am 22.6 18.4 8.2 39 7.6 NNE 20 28 11 15 1017.2 1017.1 0.0
28/09:00am 21.3 16.9 7.6 41 7.1 NNE 20 30 11 16 1017.3 1017.2 0.0
28/08:30am 20.2 15.8 7.5 43 6.5 NE 20 28 11 15 1017.3 1017.2 0.0
28/08:00am 19.1 15.2 7.0 45 6.1 NE 17 26 9 14 1017.2 1017.1 0.0
28/07:30am 18.3 14.5 7.4 49 5.5 NE 17 20 9 11 1017.1 1017.0 0.0
28/07:00am 18.1 14.7 7.7 50 5.3 NE 15 20 8 11 1017.0 1016.9 0.0
28/06:30am 17.2 14.4 8.4 56 4.5 NE 13 17 7 9 1017.0 1016.9 0.0
28/06:00am 16.7 13.9 8.5 58 4.2 NE 13 15 7 8 1017.1 1017.0 0.0
28/05:30am 17.5 14.6 8.3 54 4.7 NE 13 17 7 9 1017.0 1016.9 0.0
28/05:00am 18.3 15.1 8.4 52 5.1 NE 15 20 8 11 1017.1 1017.0 0.0
28/04:30am 18.6 15.7 8.3 51 5.3 NNE 13 17 7 9 1017.1 1017.0 0.0
28/04:00am 18.3 15.2 8.7 53 5.0 NE 15 20 8 11 1017.0 1016.9 0.0
28/03:30am 16.9 14.3 9.2 60 4.0 NE 13 15 7 8 1017.2 1017.1 0.0
28/03:00am 14.5 11.9 9.4 71 2.6 NE 13 17 7 9 1017.5 1017.4 0.0
28/02:30am 14.0 11.4 9.3 73 2.4 ENE 13 13 7 7 1017.8 1017.7 0.0
28/02:00am 12.4 11.0 9.0 80 1.7 ESE 6 7 3 4 1018.1 1018.0 0.0
28/01:30am 13.4 11.9 9.3 76 2.1 ESE 7 9 4 5 1018.2 1018.1 0.0
28/01:00am 14.6 12.8 9.6 72 2.6 ESE 9 11 5 6 1018.4 1018.3 0.0
28/12:30am 14.7 13.4 9.2 69 2.8 SE 6 9 3 5 1018.6 1018.5 0.0
28/12:00am 14.9 13.5 9.0 68 3.0 SSE 6 7 3 4 1018.8 1018.7 0.0
 
Date/Time
CDT
Temp
°C
App
Temp
°C
Dew
Point
°C
Rel
Hum
%
Delta-T
°C
Wind Press
QNH
hPa
Press
MSL
hPa
Rain since
9am
mm
Dir  Spd
km/h
Gust
km/h
Spd
kts
Gust
kts
27/11:30pm 13.9 12.4 9.0 72 2.5 S 7 9 4 5 1019.0 1018.9 0.0
27/11:00pm 15.6 14.2 9.4 66 3.2 SE 7 11 4 6 1019.0 1018.9 0.0
27/10:30pm 16.7 15.4 10.1 65 3.5 SSE 7 9 4 5 1019.1 1019.0 0.0
27/10:00pm 18.3 15.8 8.4 52 5.1 ESE 11 15 6 8 1019.2 1019.1 0.0
27/09:30pm 19.0 16.6 8.6 51 5.4 ESE 11 15 6 8 1019.3 1019.2 0.0
27/09:00pm 19.7 17.0 9.1 50 5.6 SE 13 15 7 8 1019.4 1019.3 0.0
27/08:30pm 19.8 17.6 9.4 51 5.5 S 11 13 6 7 1019.3 1019.2 0.0
27/08:00pm 21.4 19.2 9.2 45 6.5 SE 11 17 6 9 1019.1 1019.0 0.0
27/07:30pm 22.8 19.2 8.5 40 7.6 SSE 17 22 9 12 1019.0 1018.9 0.0
27/07:00pm 24.6 23.4 10.3 40 7.9 SSW 7 11 4 6 1018.9 1018.8 0.0
27/06:30pm 25.9 24.5 8.7 33 9.3 NW 6 7 3 4 1018.8 1018.7 0.0
27/06:00pm 26.2 25.8 8.2 32 9.7 CALM 0 0 0 0 1018.8 1018.7 0.0
27/05:30pm 26.7 25.0 7.6 29 10.2 N 6 9 3 5 1018.9 1018.8 0.0
27/05:00pm 27.2 24.9 5.8 25 11.1 NW 7 9 4 5 1019.0 1018.9 0.0
27/04:30pm 27.4 24.4 3.9 22 11.8 N 9 17 5 9 1019.3 1019.2 0.0
27/04:00pm 27.3 24.4 4.7 23 11.5 N 9 20 5 11 1019.6 1019.5 0.0
27/03:30pm 27.6 24.3 2.5 20 12.3 NNW 9 15 5 8 1019.9 1019.8 0.0
27/03:00pm 28.3 24.9 1.8 18 12.9 NNW 9 20 5 11 1020.2 1020.1 0.0
27/02:30pm 27.4 24.0 4.2 22 11.7 NNE 11 24 6 13 1020.4 1020.3 0.0
27/02:00pm 27.0 22.9 4.1 23 11.5 NNW 15 24 8 13 1020.8 1020.7 0.0
27/01:30pm 26.5 24.4 6.7 28 10.4 SE 7 13 4 7 1021.2 1021.1 0.0
27/01:00pm 26.1 23.7 6.8 29 10.1 NE 9 15 5 8 1021.9 1021.8 0.0
27/12:30pm 25.5 23.8 7.5 31 9.5 ESE 6 13 3 7 1022.3 1022.2 0.0
27/12:00pm 24.8 22.9 7.5 33 9.1 NE 7 13 4 7 1022.7 1022.6 0.0
27/11:30am 24.6 23.1 9.3 38 8.3 NNE 7 15 4 8 1023.0 1022.9 0.0
27/11:00am 23.6 22.1 9.3 40 7.7 NE 7 13 4 7 1023.3 1023.3 0.0
27/10:30am 20.9 19.7 9.5 48 6.1 NNE 6 9 3 5 1023.7 1023.6 0.0
27/10:00am 18.9 17.7 9.6 54 4.9 ENE 6 7 3 4 1023.9 1023.8 0.0
27/09:30am 15.2 13.8 8.9 66 3.2 ESE 6 9 3 5 1024.0 1023.9 0.0
27/09:00am 12.2 10.9 9.2 82 1.5 SE 6 7 3 4 1023.9 1023.8 0.0
27/08:30am 9.3 7.7 8.0 92 0.6 SE 6 7 3 4 1023.9 1023.8 0.0
27/08:00am 7.6 5.7 6.7 94 0.4 SE 6 7 3 4 1023.8 1023.7 0.0
27/07:30am 5.7 3.4 4.8 94 0.4 SE 6 7 3 4 1023.6 1023.5 0.0
27/07:00am 7.4 4.9 6.7 95 0.3 ESE 9 9 5 5 1023.1 1023.0 0.0
27/06:30am 5.3 2.8 4.6 95 0.3 SE 7 9 4 5 1023.1 1023.0 0.0
27/06:00am 7.2 5.2 7.0 99 0.1 SE 7 9 4 5 1023.1 1023.0 0.0
27/05:30am 6.9 4.3 6.0 94 0.4 SSE 9 9 5 5 1023.0 1022.9 0.0
27/05:00am 6.5 4.2 5.6 94 0.4 S 7 9 4 5 1022.8 1022.7 0.0
27/04:30am 7.7 5.7 6.4 91 0.6 SE 6 7 3 4 1022.7 1022.6 0.0
27/04:00am 7.8 5.7 6.5 91 0.6 SSE 7 9 4 5 1022.8 1022.7 0.0
27/03:30am 9.1 6.9 7.8 92 0.6 ESE 9 11 5 6 1023.0 1022.9 0.0
27/03:00am 9.3 7.5 7.8 90 0.7 SE 7 11 4 6 1023.4 1023.4 0.0
27/02:30am 9.8 7.7 8.4 91 0.7 ESE 9 13 5 7 1023.8 1023.7 0.0
27/02:00am 9.8 7.9 7.7 87 1.0 SSE 7 9 4 5 1023.8 1023.7 0.0
27/01:30am 10.9 8.5 8.7 86 1.1 SE 11 13 6 7 1023.6 1023.5 0.0
27/01:00am 11.2 9.2 8.8 85 1.2 SE 9 15 5 8 1023.7 1023.6 0.0
27/12:30am 11.7 9.0 8.9 83 1.4 SE 13 19 7 10 1023.8 1023.7 0.0
27/12:00am 12.2 9.5 8.8 80 1.7 SE 13 19 7 10 1024.0 1023.9 0.0
 
Date/Time
CDT
Temp
°C
App
Temp
°C
Dew
Point
°C
Rel
Hum
%
Delta-T
°C
Wind Press
QNH
hPa
Press
MSL
hPa
Rain since
9am
mm
Dir  Spd
km/h
Gust
km/h
Spd
kts
Gust
kts
26/11:30pm 12.7 9.2 8.7 76 2.0 SE 17 22 9 12 1024.3 1024.2 0.0
26/11:00pm 13.0 9.5 8.6 74 2.2 SE 17 26 9 14 1024.4 1024.3 0.0
26/10:30pm 13.4 9.9 8.6 73 2.4 SE 17 22 9 12 1024.6 1024.5 0.0
26/10:00pm 13.8 10.3 8.8 72 2.5 SE 17 20 9 11 1024.6 1024.5 0.0
26/09:30pm 14.4 10.9 8.6 68 2.9 SE 17 24 9 13 1024.6 1024.5 0.0
26/09:00pm 15.2 11.1 8.7 65 3.3 SE 20 28 11 15 1024.5 1024.4 0.0
26/08:30pm 16.1 12.6 8.6 61 3.8 SSE 17 28 9 15 1024.4 1024.3 0.0

Other formats

Comma delimited format used in spreadsheet applications
http://www.bom.gov.au/fwo/IDS60801/IDS60801.94817.axf

JavaScript Object Notation format (JSON) in row-major order
http://www.bom.gov.au/fwo/IDS60801/IDS60801.94817.json

Data quality

Most of these data are generated automatically and are frequently updated. Quality checks on data are not normally performed. It is possible for incorrect values to appear. Refer to information at About Latest Weather Observations and please check the disclaimer before using these data.